createdAt,value
2019-05-06T00:00:24.570Z,42.96
2019-05-06T00:02:58.666Z,43.30
2019-05-06T00:05:30.320Z,42.94
2019-05-06T00:08:03.890Z,43.58
2019-05-06T00:10:39.895Z,43.60
2019-05-06T00:13:19.807Z,43.24
2019-05-06T00:15:54.208Z,42.93
2019-05-06T00:18:27.261Z,43.39
2019-05-06T00:21:01.002Z,43.53
2019-05-06T00:23:39.149Z,43.23
2019-05-06T00:26:40.972Z,43.46
2019-05-06T00:29:24.345Z,42.87
2019-05-06T00:31:56.621Z,43.59
2019-05-06T00:34:27.591Z,43.36
2019-05-06T00:37:03.940Z,43.33
2019-05-06T00:39:56.888Z,43.20
2019-05-06T00:42:38.267Z,43.41
2019-05-06T00:45:11.256Z,43.47
2019-05-06T00:47:44.384Z,43.72
2019-05-06T00:50:18.955Z,43.53
2019-05-06T00:52:54.312Z,43.54
2019-05-06T00:55:27.452Z,44.13
2019-05-06T00:57:59.327Z,43.43
2019-05-06T01:00:35.472Z,43.58
2019-05-06T01:03:08.867Z,43.89
2019-05-06T01:05:39.051Z,43.57
2019-05-06T01:08:15.361Z,43.66
2019-05-06T01:10:46.667Z,44.17
2019-05-06T01:13:28.216Z,43.87
2019-05-06T01:16:00.718Z,43.54
2019-05-06T01:18:33.913Z,43.63
2019-05-06T01:21:10.997Z,43.87
2019-05-06T01:23:45.203Z,43.75
2019-05-06T01:26:19.325Z,43.83
2019-05-06T01:28:51.580Z,43.88
2019-05-06T01:31:24.699Z,43.92
2019-05-06T01:33:55.808Z,44.17
2019-05-06T01:36:26.849Z,44.26
2019-05-06T01:39:16.236Z,44.34
2019-05-06T01:42:07.349Z,43.83
2019-05-06T01:44:44.213Z,43.73
2019-05-06T01:47:20.260Z,43.82
2019-05-06T01:49:53.766Z,43.98
2019-05-06T01:52:24.642Z,43.61
2019-05-06T01:54:56.100Z,43.90
2019-05-06T01:57:33.814Z,43.82
2019-05-06T02:00:08.173Z,43.68
2019-05-06T02:02:39.768Z,43.52
2019-05-06T02:05:14.135Z,43.74
2019-05-06T02:07:46.664Z,44.01
2019-05-06T02:10:19.279Z,43.69
2019-05-06T02:12:50.962Z,43.27
2019-05-06T02:15:23.910Z,43.56
2019-05-06T02:17:56.092Z,44.04
2019-05-06T02:20:36.036Z,43.67
2019-05-06T02:23:21.743Z,43.33
2019-05-06T02:25:54.225Z,43.30
2019-05-06T02:28:26.695Z,43.62
2019-05-06T02:31:14.992Z,43.85
2019-05-06T02:34:15.395Z,43.90
2019-05-06T02:37:06.362Z,43.94
2019-05-06T02:39:37.235Z,43.33
2019-05-06T02:42:13.304Z,43.14
2019-05-06T02:44:48.106Z,42.97
2019-05-06T02:47:36.200Z,43.16
2019-05-06T02:50:13.318Z,43.03
2019-05-06T02:52:46.799Z,42.99
2019-05-06T02:55:19.812Z,43.13
2019-05-06T02:57:53.857Z,42.99
2019-05-06T03:00:27.482Z,43.08
2019-05-06T03:03:03.205Z,43.48
2019-05-06T03:05:36.825Z,43.56
2019-05-06T03:08:13.442Z,42.99
2019-05-06T03:10:44.625Z,43.35
2019-05-06T03:13:15.607Z,43.86
2019-05-06T03:15:47.032Z,44.37
2019-05-06T03:18:24.069Z,44.18
2019-05-06T03:21:16.872Z,43.58
2019-05-06T03:23:59.074Z,43.38
2019-05-06T03:26:33.128Z,43.49
2019-05-06T03:29:06.809Z,44.05
2019-05-06T03:31:38.981Z,44.96
2019-05-06T03:34:35.889Z,44.20
2019-05-06T03:36:49.042Z,44.76
2019-05-06T03:39:24.142Z,44.64
2019-05-06T03:41:56.935Z,44.46
2019-05-06T03:44:27.175Z,44.31
2019-05-06T03:47:17.477Z,45.00
2019-05-06T03:49:54.422Z,44.61
2019-05-06T03:52:24.653Z,44.80
2019-05-06T03:54:58.741Z,45.22
2019-05-06T03:57:35.389Z,45.36
2019-05-06T04:00:09.198Z,45.68
2019-05-06T04:02:43.564Z,45.51
2019-05-06T04:05:14.379Z,45.10
2019-05-06T04:07:46.098Z,45.10
2019-05-06T04:10:18.758Z,45.29
2019-05-06T04:12:53.464Z,45.23
2019-05-06T04:15:26.809Z,44.59
2019-05-06T04:18:04.043Z,45.00
2019-05-06T04:20:53.149Z,44.94
2019-05-06T04:23:33.133Z,45.02
2019-05-06T04:26:26.008Z,45.20
2019-05-06T04:28:58.197Z,44.84
2019-05-06T04:31:33.403Z,44.91
2019-05-06T04:34:14.609Z,44.63
2019-05-06T04:36:44.095Z,45.75
2019-05-06T04:39:23.695Z,44.80
2019-05-06T04:41:57.570Z,44.78
2019-05-06T04:44:33.197Z,44.93
2019-05-06T04:47:05.372Z,44.97
2019-05-06T04:49:38.282Z,45.01
2019-05-06T04:52:13.634Z,44.80
2019-05-06T04:54:44.147Z,45.44
2019-05-06T04:57:17.738Z,45.29
2019-05-06T04:59:54.153Z,44.15
2019-05-06T05:02:25.426Z,44.75
2019-05-06T05:04:57.107Z,44.49
2019-05-06T05:07:33.405Z,43.81
2019-05-06T05:10:13.063Z,43.73
2019-05-06T05:13:14.532Z,44.00
2019-05-06T05:16:04.375Z,43.88
2019-05-06T05:19:02.847Z,43.88
2019-05-06T05:21:38.087Z,43.56
2019-05-06T05:24:12.922Z,44.23
2019-05-06T05:26:47.106Z,43.31
2019-05-06T05:29:18.958Z,43.60
2019-05-06T05:31:50.397Z,42.90
2019-05-06T05:34:26.583Z,43.21
2019-05-06T05:36:59.660Z,42.92
2019-05-06T05:39:33.616Z,43.72
2019-05-06T05:42:22.146Z,43.27
2019-05-06T05:45:05.396Z,45.41
2019-05-06T05:47:37.422Z,44.31
2019-05-06T05:50:32.556Z,44.36
2019-05-06T05:53:09.576Z,43.88
2019-05-06T05:55:43.523Z,43.86
2019-05-06T05:58:15.402Z,43.19
2019-05-06T06:00:54.050Z,43.86
2019-05-06T06:03:24.723Z,44.19
2019-05-06T06:06:00.471Z,43.86
2019-05-06T06:08:36.962Z,43.59
2019-05-06T06:11:18.617Z,44.12
2019-05-06T06:13:49.585Z,43.16
2019-05-06T06:16:42.495Z,43.22
2019-05-06T06:19:37.441Z,42.80
2019-05-06T06:22:15.943Z,43.71
2019-05-06T06:24:52.460Z,43.41
2019-05-06T06:27:26.496Z,43.17
2019-05-06T06:29:59.575Z,43.37
2019-05-06T06:32:33.788Z,43.44
2019-05-06T06:35:22.886Z,43.16
2019-05-06T06:38:04.443Z,42.61
2019-05-06T06:40:37.506Z,43.23
2019-05-06T06:43:18.258Z,43.07
2019-05-06T06:45:53.067Z,43.53
2019-05-06T06:48:28.039Z,43.67
2019-05-06T06:50:58.927Z,43.24
2019-05-06T06:53:33.845Z,42.75
2019-05-06T06:56:39.434Z,43.86
2019-05-06T06:59:28.585Z,42.74
2019-05-06T07:02:22.485Z,42.28
2019-05-06T07:05:02.354Z,41.72
2019-05-06T07:07:43.551Z,40.84
2019-05-06T07:10:32.435Z,40.44
2019-05-06T07:13:04.499Z,40.99
2019-05-06T07:15:42.483Z,41.70
2019-05-06T07:18:13.663Z,41.06
2019-05-06T07:21:10.371Z,40.85
2019-05-06T07:23:42.092Z,40.91
2019-05-06T07:26:15.970Z,40.64
2019-05-06T07:28:47.247Z,41.79
2019-05-06T07:31:23.803Z,40.42
2019-05-06T07:33:52.322Z,40.88
2019-05-06T07:36:26.691Z,40.85
2019-05-06T07:39:04.098Z,41.32
2019-05-06T07:41:55.419Z,41.64
2019-05-06T07:44:47.184Z,40.83
2019-05-06T07:47:33.128Z,42.69
2019-05-06T07:50:04.907Z,42.39
2019-05-06T07:52:45.382Z,41.89
2019-05-06T07:55:18.707Z,42.56
2019-05-06T07:57:52.195Z,41.25
2019-05-06T08:00:22.971Z,41.93
2019-05-06T08:03:02.572Z,42.50
2019-05-06T08:05:34.604Z,41.51
2019-05-06T08:08:06.355Z,41.18
2019-05-06T08:10:38.464Z,40.64
2019-05-06T08:13:09.434Z,41.01
2019-05-06T08:15:42.829Z,40.98
2019-05-06T08:18:16.229Z,39.89
2019-05-06T08:20:47.415Z,38.93
2019-05-06T08:23:26.319Z,40.42
2019-05-06T08:26:09.120Z,40.19
2019-05-06T08:28:40.678Z,39.73
2019-05-06T08:31:04.732Z,39.63
2019-05-06T08:33:37.427Z,38.29
2019-05-06T08:36:14.844Z,39.69
2019-05-06T08:39:02.831Z,40.57
2019-05-06T08:41:42.338Z,41.31
2019-05-06T08:44:16.834Z,40.98
2019-05-06T08:46:48.489Z,40.23
2019-05-06T08:49:22.518Z,41.21
2019-05-06T08:52:02.420Z,40.22
2019-05-06T08:54:37.678Z,38.78
2019-05-06T08:57:12.496Z,38.85
2019-05-06T08:59:46.012Z,38.30
2019-05-06T09:02:18.505Z,38.74
2019-05-06T09:04:53.009Z,37.68
2019-05-06T09:07:24.178Z,38.34
2019-05-06T09:09:55.620Z,37.41
2019-05-06T09:12:27.169Z,35.98
2019-05-06T09:15:04.444Z,37.27
2019-05-06T09:17:37.783Z,37.86
2019-05-06T09:20:10.155Z,36.83
2019-05-06T09:22:42.941Z,37.66
2019-05-06T09:25:14.584Z,35.49
2019-05-06T09:28:16.547Z,36.85
2019-05-06T09:31:02.990Z,37.23
2019-05-06T09:33:45.238Z,36.59
2019-05-06T09:36:22.935Z,36.40
2019-05-06T09:38:54.734Z,36.92
2019-05-06T09:41:26.083Z,36.75
2019-05-06T09:44:03.238Z,36.81
2019-05-06T09:46:36.811Z,36.54
2019-05-06T09:49:33.192Z,36.79
2019-05-06T09:52:08.707Z,36.35
2019-05-06T09:55:03.218Z,36.34
2019-05-06T09:57:57.908Z,36.22
2019-05-06T10:00:32.990Z,37.14
2019-05-06T10:03:05.487Z,36.89
2019-05-06T10:05:42.375Z,36.51
2019-05-06T10:08:15.256Z,36.74
2019-05-06T10:10:56.120Z,36.56
2019-05-06T10:13:20.046Z,35.82
2019-05-06T10:15:52.429Z,35.58
2019-05-06T10:18:29.513Z,36.17
2019-05-06T10:21:00.208Z,36.53
2019-05-06T10:23:35.876Z,35.17
2019-05-06T10:26:09.857Z,35.44
2019-05-06T10:28:52.352Z,35.34
2019-05-06T10:31:22.847Z,34.65
2019-05-06T10:34:14.096Z,34.54
2019-05-06T10:37:11.658Z,34.81
2019-05-06T10:39:40.197Z,35.10
2019-05-06T10:42:17.684Z,34.44
2019-05-06T10:45:12.255Z,35.59
2019-05-06T10:47:44.334Z,36.27
2019-05-06T10:50:15.674Z,38.30
2019-05-06T10:53:03.701Z,40.04
2019-05-06T10:55:34.290Z,40.13
2019-05-06T10:58:09.526Z,40.19
2019-05-06T11:00:42.441Z,39.07
2019-05-06T11:03:18.734Z,39.18
2019-05-06T11:05:50.002Z,37.85
2019-05-06T11:08:22.146Z,37.73
2019-05-06T11:10:56.247Z,38.20
2019-05-06T11:13:32.148Z,36.69
2019-05-06T11:16:03.430Z,36.97
2019-05-06T11:18:36.503Z,36.64
2019-05-06T11:21:08.734Z,37.25
2019-05-06T11:23:41.759Z,38.17
2019-05-06T11:26:14.172Z,38.10
2019-05-06T11:28:55.073Z,37.29
2019-05-06T11:31:43.067Z,38.11
2019-05-06T11:34:46.595Z,37.09
2019-05-06T11:37:43.692Z,36.48
2019-05-06T11:40:04.279Z,33.94
2019-05-06T11:42:44.474Z,33.62
2019-05-06T11:45:18.331Z,32.48
2019-05-06T11:47:50.126Z,31.94
2019-05-06T11:50:22.883Z,31.21
2019-05-06T11:53:02.288Z,31.77
2019-05-06T11:55:38.630Z,30.98
2019-05-06T11:58:08.429Z,31.80
2019-05-06T12:00:44.405Z,31.76
2019-05-06T12:03:17.257Z,31.32
2019-05-06T12:05:54.238Z,32.78
2019-05-06T12:08:25.543Z,31.57
2019-05-06T12:10:58.786Z,32.12
2019-05-06T12:13:33.529Z,31.36
2019-05-06T12:16:06.091Z,30.54
2019-05-06T12:18:38.364Z,31.18
2019-05-06T12:21:14.604Z,31.74
2019-05-06T12:23:45.100Z,31.41
2019-05-06T12:26:17.003Z,30.80
2019-05-06T12:28:53.324Z,30.52
2019-05-06T12:31:26.591Z,30.28
2019-05-06T12:33:58.274Z,30.57
2019-05-06T12:36:32.551Z,31.00
2019-05-06T12:39:23.151Z,31.12
2019-05-06T12:42:18.740Z,31.04
2019-05-06T12:45:03.855Z,30.57
2019-05-06T12:47:53.426Z,30.24
2019-05-06T12:50:28.404Z,30.68
2019-05-06T12:53:02.484Z,30.13
2019-05-06T12:55:38.157Z,30.46
2019-05-06T12:58:13.597Z,30.51
2019-05-06T13:00:46.545Z,31.22
2019-05-06T13:03:25.036Z,31.82
2019-05-06T13:05:57.969Z,30.23
2019-05-06T13:08:47.919Z,30.27
2019-05-06T13:11:02.717Z,31.11
2019-05-06T13:13:53.962Z,31.76
2019-05-06T13:16:14.915Z,31.60
2019-05-06T13:18:47.846Z,31.43
2019-05-06T13:21:22.387Z,31.28
2019-05-06T13:24:04.358Z,31.72
2019-05-06T13:26:55.030Z,31.09
2019-05-06T13:29:29.046Z,31.04
2019-05-06T13:32:02.085Z,31.67
2019-05-06T13:34:36.756Z,32.35
2019-05-06T13:37:17.098Z,31.55
2019-05-06T13:39:52.906Z,31.45
2019-05-06T13:42:33.122Z,31.80
2019-05-06T13:45:03.085Z,31.54
2019-05-06T13:48:03.845Z,31.22
2019-05-06T13:50:43.512Z,32.40
2019-05-06T13:53:18.989Z,31.50
2019-05-06T13:55:56.479Z,32.50
2019-05-06T13:58:27.243Z,30.22
2019-05-06T14:01:02.907Z,30.13
2019-05-06T14:03:37.597Z,28.82
2019-05-06T14:06:12.912Z,29.22
2019-05-06T14:08:44.688Z,28.98
2019-05-06T14:11:18.802Z,29.04
2019-05-06T14:13:52.906Z,29.33
2019-05-06T14:16:25.846Z,28.73
2019-05-06T14:18:58.118Z,28.10
2019-05-06T14:21:32.561Z,27.81
2019-05-06T14:24:08.017Z,24.48
2019-05-06T14:26:46.598Z,23.80
2019-05-06T14:29:28.821Z,22.87
2019-05-06T14:32:03.893Z,22.40
2019-05-06T14:34:37.665Z,23.23
2019-05-06T14:37:09.476Z,24.36
2019-05-06T14:39:52.795Z,25.23
2019-05-06T14:42:18.656Z,26.54
2019-05-06T14:44:49.685Z,26.56
2019-05-06T14:47:25.659Z,26.74
2019-05-06T14:49:56.640Z,27.84
2019-05-06T14:52:33.353Z,28.47
2019-05-06T14:55:29.675Z,27.75
2019-05-06T14:58:04.534Z,27.12
2019-05-06T15:00:36.691Z,25.69
2019-05-06T15:03:12.947Z,25.75
2019-05-06T15:05:49.941Z,26.46
2019-05-06T15:08:22.474Z,26.56
2019-05-06T15:10:54.692Z,27.45
2019-05-06T15:13:25.297Z,27.45
2019-05-06T15:15:56.406Z,27.29
2019-05-06T15:18:37.051Z,26.70
2019-05-06T15:21:30.274Z,25.71
2019-05-06T15:23:46.324Z,26.30
2019-05-06T15:26:17.654Z,27.20
2019-05-06T15:28:52.849Z,26.98
2019-05-06T15:31:42.118Z,27.41
2019-05-06T15:34:22.273Z,27.80
2019-05-06T15:37:19.012Z,27.62
2019-05-06T15:39:54.278Z,27.93
2019-05-06T15:42:28.012Z,27.33
2019-05-06T15:45:01.594Z,28.15
2019-05-06T15:47:35.930Z,29.07
2019-05-06T15:50:12.500Z,29.89
2019-05-06T15:52:48.773Z,30.92
2019-05-06T15:55:22.559Z,30.39
2019-05-06T15:58:03.597Z,31.96
2019-05-06T16:00:38.511Z,33.84
2019-05-06T16:03:12.780Z,34.05
2019-05-06T16:05:49.800Z,38.02
2019-05-06T16:08:26.526Z,40.61
2019-05-06T16:11:07.605Z,41.91
2019-05-06T16:13:45.109Z,42.57
2019-05-06T16:16:23.369Z,43.27
2019-05-06T16:18:58.422Z,43.56
2019-05-06T16:21:34.097Z,44.54
2019-05-06T16:24:16.998Z,44.37
2019-05-06T16:26:55.108Z,44.78
2019-05-06T16:29:38.981Z,45.06
2019-05-06T16:32:10.673Z,45.33
2019-05-06T16:34:43.547Z,44.90
2019-05-06T16:37:16.147Z,45.30
2019-05-06T16:39:47.836Z,45.23
2019-05-06T16:42:22.243Z,44.99
2019-05-06T16:44:57.392Z,45.76
2019-05-06T16:47:49.085Z,46.73
2019-05-06T16:50:22.427Z,46.41
2019-05-06T16:52:54.514Z,46.06
2019-05-06T16:55:36.836Z,45.98
2019-05-06T16:58:12.259Z,46.95
2019-05-06T17:00:45.703Z,46.89
2019-05-06T17:03:35.099Z,46.97
2019-05-06T17:06:16.735Z,46.77
2019-05-06T17:08:49.246Z,46.85
2019-05-06T17:11:30.008Z,47.04
2019-05-06T17:13:58.915Z,47.46
2019-05-06T17:16:34.016Z,47.20
2019-05-06T17:19:12.476Z,48.31
2019-05-06T17:21:48.608Z,48.70
2019-05-06T17:24:22.394Z,48.15
2019-05-06T17:26:57.784Z,47.12
2019-05-06T17:29:48.198Z,48.05
2019-05-06T17:32:37.838Z,47.92
2019-05-06T17:35:12.809Z,47.63
2019-05-06T17:38:04.450Z,47.80
2019-05-06T17:40:43.036Z,47.85
2019-05-06T17:43:22.642Z,48.18
2019-05-06T17:46:02.317Z,48.13
2019-05-06T17:49:02.573Z,47.85
2019-05-06T17:51:55.913Z,48.43
2019-05-06T17:54:27.593Z,48.23
2019-05-06T17:57:04.722Z,46.97
2019-05-06T17:59:37.575Z,47.27
2019-05-06T18:02:18.925Z,48.61
2019-05-06T18:04:57.796Z,47.98
2019-05-06T18:07:34.612Z,47.82
2019-05-06T18:10:14.410Z,47.05
2019-05-06T18:12:47.403Z,46.94
2019-05-06T18:15:22.584Z,47.11
2019-05-06T18:17:54.507Z,47.41
2019-05-06T18:20:28.999Z,47.05
2019-05-06T18:23:02.174Z,46.88
2019-05-06T18:25:33.983Z,48.14
2019-05-06T18:28:07.607Z,46.48
2019-05-06T18:30:40.462Z,47.06
2019-05-06T18:33:15.175Z,46.75
2019-05-06T18:36:22.447Z,45.46
2019-05-06T18:38:54.560Z,45.62
2019-05-06T18:41:32.376Z,45.52
2019-05-06T18:44:04.024Z,45.18
2019-05-06T18:46:35.548Z,45.46
2019-05-06T18:49:06.386Z,45.09
2019-05-06T18:51:38.742Z,45.99
2019-05-06T18:54:12.494Z,46.42
2019-05-06T18:56:48.809Z,46.89
2019-05-06T18:59:38.323Z,45.86
2019-05-06T19:02:13.328Z,45.89
2019-05-06T19:04:59.343Z,45.69
2019-05-06T19:07:32.818Z,46.29
2019-05-06T19:10:12.787Z,45.84
2019-05-06T19:12:52.820Z,45.14
2019-05-06T19:15:24.522Z,45.89
2019-05-06T19:17:58.303Z,45.33
2019-05-06T19:20:33.308Z,45.28
2019-05-06T19:23:03.935Z,46.23
2019-05-06T19:25:38.538Z,46.66
2019-05-06T19:28:09.405Z,46.71
2019-05-06T19:30:43.310Z,46.97
2019-05-06T19:33:21.366Z,47.08
2019-05-06T19:35:55.939Z,46.17
2019-05-06T19:38:27.073Z,47.25
2019-05-06T19:41:05.934Z,46.98
2019-05-06T19:43:42.178Z,46.39
2019-05-06T19:46:18.335Z,47.67
2019-05-06T19:48:52.521Z,46.70
2019-05-06T19:51:23.542Z,46.66
2019-05-06T19:53:54.393Z,47.62
2019-05-06T19:56:29.520Z,47.14
2019-05-06T19:59:04.408Z,46.62
2019-05-06T20:01:37.344Z,46.61
2019-05-06T20:04:13.001Z,46.84
2019-05-06T20:07:02.351Z,47.79
2019-05-06T20:10:06.995Z,48.10
2019-05-06T20:12:44.738Z,46.84
2019-05-06T20:15:38.023Z,48.75
2019-05-06T20:18:35.611Z,47.77
2019-05-06T20:21:09.885Z,47.95
2019-05-06T20:23:42.476Z,47.98
2019-05-06T20:26:15.363Z,49.06
2019-05-06T20:28:54.836Z,48.74
2019-05-06T20:31:29.039Z,49.13
2019-05-06T20:34:02.238Z,48.32
2019-05-06T20:36:36.383Z,48.44
2019-05-06T20:39:11.841Z,48.82
2019-05-06T20:41:43.267Z,48.31
2019-05-06T20:44:15.838Z,48.09
2019-05-06T20:46:48.487Z,48.21
2019-05-06T20:49:23.918Z,48.65
2019-05-06T20:51:54.990Z,48.36
2019-05-06T20:54:26.545Z,47.57
2019-05-06T20:56:57.938Z,47.85
2019-05-06T20:59:32.091Z,48.57
2019-05-06T21:02:05.540Z,48.52
2019-05-06T21:04:38.645Z,48.15
2019-05-06T21:07:12.579Z,48.96
2019-05-06T21:09:45.399Z,48.21
2019-05-06T21:12:21.804Z,47.93
2019-05-06T21:14:52.398Z,48.29
2019-05-06T21:17:28.846Z,48.26
2019-05-06T21:20:02.669Z,49.18
2019-05-06T21:22:42.838Z,48.75
2019-05-06T21:25:15.126Z,48.92
2019-05-06T21:27:50.595Z,48.68
2019-05-06T21:30:28.151Z,47.92
2019-05-06T21:33:17.410Z,47.65
2019-05-06T21:35:48.990Z,47.39
2019-05-06T21:38:25.637Z,47.10
2019-05-06T21:40:58.392Z,47.49
2019-05-06T21:43:45.987Z,47.58
2019-05-06T21:46:08.550Z,46.79
2019-05-06T21:49:00.804Z,46.96
2019-05-06T21:51:34.489Z,47.43
2019-05-06T21:54:12.489Z,47.13
2019-05-06T21:56:45.813Z,46.78
2019-05-06T21:59:20.705Z,47.79
2019-05-06T22:01:53.491Z,48.19
2019-05-06T22:04:29.474Z,48.17
2019-05-06T22:07:04.218Z,47.15
2019-05-06T22:09:57.288Z,46.50
2019-05-06T22:12:32.653Z,47.46
2019-05-06T22:15:05.073Z,47.00
2019-05-06T22:17:43.086Z,46.81
2019-05-06T22:20:15.210Z,46.88
2019-05-06T22:22:52.065Z,45.87
2019-05-06T22:25:26.572Z,46.73
2019-05-06T22:28:02.511Z,46.84
2019-05-06T22:30:39.191Z,46.94
2019-05-06T22:33:14.380Z,46.64
2019-05-06T22:35:47.334Z,46.74
2019-05-06T22:38:21.705Z,46.86
2019-05-06T22:40:57.629Z,46.46
2019-05-06T22:43:33.764Z,45.86
2019-05-06T22:46:12.327Z,46.06
2019-05-06T22:48:45.867Z,45.68
2019-05-06T22:51:16.878Z,46.36
2019-05-06T22:53:53.227Z,46.44
2019-05-06T22:56:27.438Z,46.88
2019-05-06T22:59:04.193Z,46.10
2019-05-06T23:02:02.302Z,45.95
2019-05-06T23:04:43.075Z,46.12
2019-05-06T23:07:18.288Z,45.89
2019-05-06T23:09:52.214Z,46.15
2019-05-06T23:12:28.503Z,46.00
2019-05-06T23:15:02.646Z,46.41
2019-05-06T23:17:36.427Z,45.63
2019-05-06T23:20:15.164Z,46.51
2019-05-06T23:22:51.843Z,46.54
2019-05-06T23:25:28.310Z,46.65
2019-05-06T23:28:12.092Z,46.48
2019-05-06T23:30:48.043Z,46.64
2019-05-06T23:33:19.695Z,46.23
2019-05-06T23:35:55.686Z,46.24
2019-05-06T23:39:02.224Z,46.41
2019-05-06T23:42:11.975Z,46.64
2019-05-06T23:45:22.759Z,46.91
2019-05-06T23:48:33.325Z,46.96
2019-05-06T23:51:42.474Z,47.36
2019-05-06T23:54:49.581Z,47.39
2019-05-06T23:57:24.912Z,47.67
